sensor_id;sensor_type;location;lat;lon;timestamp;temperature;humidity
47576;DHT22;33304;52.456;13.328;2022-09-09T00:00:48;15.00;99.90
47576;DHT22;33304;52.456;13.328;2022-09-09T00:03:17;14.90;99.90
47576;DHT22;33304;52.456;13.328;2022-09-09T00:05:51;15.00;99.90
47576;DHT22;33304;52.456;13.328;2022-09-09T00:08:22;15.00;99.90
47576;DHT22;33304;52.456;13.328;2022-09-09T00:10:56;15.00;99.90
47576;DHT22;33304;52.456;13.328;2022-09-09T00:13:30;14.90;99.90
47576;DHT22;33304;52.456;13.328;2022-09-09T00:16:06;14.90;99.90
47576;DHT22;33304;52.456;13.328;2022-09-09T00:18:50;14.80;99.90
47576;DHT22;33304;52.456;13.328;2022-09-09T00:21:23;14.80;99.90
47576;DHT22;33304;52.456;13.328;2022-09-09T00:23:54;14.80;99.90
47576;DHT22;33304;52.456;13.328;2022-09-09T00:26:26;14.80;99.90
47576;DHT22;33304;52.456;13.328;2022-09-09T00:29:05;14.70;99.90
47576;DHT22;33304;52.456;13.328;2022-09-09T00:31:37;14.70;99.90
47576;DHT22;33304;52.456;13.328;2022-09-09T00:34:11;14.70;99.90
47576;DHT22;33304;52.456;13.328;2022-09-09T00:36:39;14.70;99.90
47576;DHT22;33304;52.456;13.328;2022-09-09T00:39:12;14.60;99.90
47576;DHT22;33304;52.456;13.328;2022-09-09T00:41:49;14.60;99.90
47576;DHT22;33304;52.456;13.328;2022-09-09T00:44:28;14.60;99.90
47576;DHT22;33304;52.456;13.328;2022-09-09T00:47:09;14.60;99.90
47576;DHT22;33304;52.456;13.328;2022-09-09T00:49:45;14.60;99.90
47576;DHT22;33304;52.456;13.328;2022-09-09T00:52:26;14.70;99.90
47576;DHT22;33304;52.456;13.328;2022-09-09T00:55:04;14.70;99.90
47576;DHT22;33304;52.456;13.328;2022-09-09T00:57:34;14.60;99.90
47576;DHT22;33304;52.456;13.328;2022-09-09T01:00:21;14.60;99.90
47576;DHT22;33304;52.456;13.328;2022-09-09T01:03:01;14.60;99.90
47576;DHT22;33304;52.456;13.328;2022-09-09T01:05:35;14.50;99.90
47576;DHT22;33304;52.456;13.328;2022-09-09T01:08:14;14.50;99.90
47576;DHT22;33304;52.456;13.328;2022-09-09T01:10:49;14.40;99.90
47576;DHT22;33304;52.456;13.328;2022-09-09T01:13:24;14.40;99.90
47576;DHT22;33304;52.456;13.328;2022-09-09T01:15:54;14.40;99.90
47576;DHT22;33304;52.456;13.328;2022-09-09T01:18:27;14.40;99.90
47576;DHT22;33304;52.456;13.328;2022-09-09T01:21:02;14.30;99.90
47576;DHT22;33304;52.456;13.328;2022-09-09T01:23:54;14.30;99.90
47576;DHT22;33304;52.456;13.328;2022-09-09T01:26:37;14.30;99.90
47576;DHT22;33304;52.456;13.328;2022-09-09T01:29:11;14.30;99.90
47576;DHT22;33304;52.456;13.328;2022-09-09T01:31:42;14.30;99.90
47576;DHT22;33304;52.456;13.328;2022-09-09T01:34:19;14.30;99.90
47576;DHT22;33304;52.456;13.328;2022-09-09T01:36:51;14.20;99.90
47576;DHT22;33304;52.456;13.328;2022-09-09T01:39:20;14.20;99.90
47576;DHT22;33304;52.456;13.328;2022-09-09T01:41:57;14.20;99.90
47576;DHT22;33304;52.456;13.328;2022-09-09T01:44:25;14.20;99.90
47576;DHT22;33304;52.456;13.328;2022-09-09T01:46:53;14.20;99.90
47576;DHT22;33304;52.456;13.328;2022-09-09T01:49:21;14.20;99.90
47576;DHT22;33304;52.456;13.328;2022-09-09T01:51:52;14.20;99.90
47576;DHT22;33304;52.456;13.328;2022-09-09T01:54:28;14.20;99.90
47576;DHT22;33304;52.456;13.328;2022-09-09T01:57:06;14.10;99.90
47576;DHT22;33304;52.456;13.328;2022-09-09T02:00:04;14.10;99.90
47576;DHT22;33304;52.456;13.328;2022-09-09T02:02:46;14.10;99.90
47576;DHT22;33304;52.456;13.328;2022-09-09T02:05:30;14.10;99.90
47576;DHT22;33304;52.456;13.328;2022-09-09T02:08:05;14.10;99.90
47576;DHT22;33304;52.456;13.328;2022-09-09T02:10:46;14.10;99.90
47576;DHT22;33304;52.456;13.328;2022-09-09T02:13:28;14.00;99.90
47576;DHT22;33304;52.456;13.328;2022-09-09T02:15:59;14.00;99.90
47576;DHT22;33304;52.456;13.328;2022-09-09T02:18:34;14.00;99.90
47576;DHT22;33304;52.456;13.328;2022-09-09T02:21:02;14.00;99.90
47576;DHT22;33304;52.456;13.328;2022-09-09T02:23:30;14.10;99.90
47576;DHT22;33304;52.456;13.328;2022-09-09T02:26:00;14.00;99.90
47576;DHT22;33304;52.456;13.328;2022-09-09T02:28:32;14.00;99.90
47576;DHT22;33304;52.456;13.328;2022-09-09T02:31:01;14.00;99.90
47576;DHT22;33304;52.456;13.328;2022-09-09T02:33:39;14.00;99.90
47576;DHT22;33304;52.456;13.328;2022-09-09T02:36:08;14.00;99.90
47576;DHT22;33304;52.456;13.328;2022-09-09T02:38:41;13.90;99.90
47576;DHT22;33304;52.456;13.328;2022-09-09T02:41:14;14.00;99.90
47576;DHT22;33304;52.456;13.328;2022-09-09T02:43:43;13.90;99.90
47576;DHT22;33304;52.456;13.328;2022-09-09T02:46:26;13.90;99.90
47576;DHT22;33304;52.456;13.328;2022-09-09T02:49:01;13.90;99.90
47576;DHT22;33304;52.456;13.328;2022-09-09T02:51:40;13.90;99.90
47576;DHT22;33304;52.456;13.328;2022-09-09T02:54:19;13.90;99.90
47576;DHT22;33304;52.456;13.328;2022-09-09T02:56:52;13.90;99.90
47576;DHT22;33304;52.456;13.328;2022-09-09T02:59:25;13.80;99.90
47576;DHT22;33304;52.456;13.328;2022-09-09T03:01:53;13.80;99.90
47576;DHT22;33304;52.456;13.328;2022-09-09T03:04:21;13.80;99.90
47576;DHT22;33304;52.456;13.328;2022-09-09T03:06:51;13.80;99.90
47576;DHT22;33304;52.456;13.328;2022-09-09T03:09:20;13.80;99.90
47576;DHT22;33304;52.456;13.328;2022-09-09T03:11:49;13.80;99.90
47576;DHT22;33304;52.456;13.328;2022-09-09T03:14:17;13.80;99.90
47576;DHT22;33304;52.456;13.328;2022-09-09T03:16:48;13.80;99.90
47576;DHT22;33304;52.456;13.328;2022-09-09T03:19:16;13.80;99.90
47576;DHT22;33304;52.456;13.328;2022-09-09T03:21:44;13.80;99.90
47576;DHT22;33304;52.456;13.328;2022-09-09T03:24:12;13.80;99.90
47576;DHT22;33304;52.456;13.328;2022-09-09T03:26:40;13.80;99.90
47576;DHT22;33304;52.456;13.328;2022-09-09T03:29:12;13.70;99.90
47576;DHT22;33304;52.456;13.328;2022-09-09T03:31:40;13.70;99.90
47576;DHT22;33304;52.456;13.328;2022-09-09T03:34:10;13.70;99.90
47576;DHT22;33304;52.456;13.328;2022-09-09T03:36:38;13.70;99.90
47576;DHT22;33304;52.456;13.328;2022-09-09T03:39:07;13.70;99.90
47576;DHT22;33304;52.456;13.328;2022-09-09T03:41:35;13.70;99.90
47576;DHT22;33304;52.456;13.328;2022-09-09T03:44:04;13.70;99.90
47576;DHT22;33304;52.456;13.328;2022-09-09T03:46:36;13.70;99.90
47576;DHT22;33304;52.456;13.328;2022-09-09T03:49:04;13.70;99.90
47576;DHT22;33304;52.456;13.328;2022-09-09T03:51:33;13.60;99.90
47576;DHT22;33304;52.456;13.328;2022-09-09T03:54:02;13.60;99.90
47576;DHT22;33304;52.456;13.328;2022-09-09T03:56:31;13.60;99.90
47576;DHT22;33304;52.456;13.328;2022-09-09T03:58:59;13.60;99.90
47576;DHT22;33304;52.456;13.328;2022-09-09T04:01:27;13.60;99.90
47576;DHT22;33304;52.456;13.328;2022-09-09T04:03:55;13.60;99.90
47576;DHT22;33304;52.456;13.328;2022-09-09T04:06:24;13.60;99.90
47576;DHT22;33304;52.456;13.328;2022-09-09T04:08:53;13.70;99.90
47576;DHT22;33304;52.456;13.328;2022-09-09T04:11:21;13.60;99.90
47576;DHT22;33304;52.456;13.328;2022-09-09T04:13:51;13.60;99.90
47576;DHT22;33304;52.456;13.328;2022-09-09T04:16:19;13.50;99.90
47576;DHT22;33304;52.456;13.328;2022-09-09T04:18:46;13.50;99.90
47576;DHT22;33304;52.456;13.328;2022-09-09T04:21:16;13.40;99.90
47576;DHT22;33304;52.456;13.328;2022-09-09T04:23:43;13.50;99.90
47576;DHT22;33304;52.456;13.328;2022-09-09T04:26:11;13.50;99.90
47576;DHT22;33304;52.456;13.328;2022-09-09T04:28:39;13.50;99.90
47576;DHT22;33304;52.456;13.328;2022-09-09T04:31:16;13.50;99.90
47576;DHT22;33304;52.456;13.328;2022-09-09T04:33:45;13.60;99.90
47576;DHT22;33304;52.456;13.328;2022-09-09T04:36:13;13.60;99.90
47576;DHT22;33304;52.456;13.328;2022-09-09T04:38:41;13.60;99.90
47576;DHT22;33304;52.456;13.328;2022-09-09T04:41:12;13.60;99.90
47576;DHT22;33304;52.456;13.328;2022-09-09T04:43:42;13.70;99.90
47576;DHT22;33304;52.456;13.328;2022-09-09T04:46:10;13.60;99.90
47576;DHT22;33304;52.456;13.328;2022-09-09T04:48:37;13.60;99.90
47576;DHT22;33304;52.456;13.328;2022-09-09T04:51:08;13.50;99.90
47576;DHT22;33304;52.456;13.328;2022-09-09T04:53:36;13.60;99.90
47576;DHT22;33304;52.456;13.328;2022-09-09T04:56:05;13.60;99.90
47576;DHT22;33304;52.456;13.328;2022-09-09T04:58:39;13.60;99.90
47576;DHT22;33304;52.456;13.328;2022-09-09T05:01:10;13.70;99.90
47576;DHT22;33304;52.456;13.328;2022-09-09T05:03:39;13.90;99.90
47576;DHT22;33304;52.456;13.328;2022-09-09T05:06:10;13.80;99.90
47576;DHT22;33304;52.456;13.328;2022-09-09T05:08:39;14.00;99.90
47576;DHT22;33304;52.456;13.328;2022-09-09T05:11:14;13.90;99.90
47576;DHT22;33304;52.456;13.328;2022-09-09T05:13:43;13.90;99.90
47576;DHT22;33304;52.456;13.328;2022-09-09T05:16:10;13.90;99.90
47576;DHT22;33304;52.456;13.328;2022-09-09T05:18:37;13.90;99.90
47576;DHT22;33304;52.456;13.328;2022-09-09T05:21:06;13.90;99.90
47576;DHT22;33304;52.456;13.328;2022-09-09T05:23:34;14.00;99.90
47576;DHT22;33304;52.456;13.328;2022-09-09T05:26:02;13.90;99.90
47576;DHT22;33304;52.456;13.328;2022-09-09T05:28:30;14.00;99.90
47576;DHT22;33304;52.456;13.328;2022-09-09T05:31:00;14.00;99.90
47576;DHT22;33304;52.456;13.328;2022-09-09T05:33:31;14.00;99.90
47576;DHT22;33304;52.456;13.328;2022-09-09T05:36:01;14.20;99.90
47576;DHT22;33304;52.456;13.328;2022-09-09T05:38:30;14.20;99.90
47576;DHT22;33304;52.456;13.328;2022-09-09T05:40:59;14.20;99.90
47576;DHT22;33304;52.456;13.328;2022-09-09T05:43:26;14.30;99.90
47576;DHT22;33304;52.456;13.328;2022-09-09T05:46:04;14.20;99.90
47576;DHT22;33304;52.456;13.328;2022-09-09T05:48:33;14.20;99.90
47576;DHT22;33304;52.456;13.328;2022-09-09T05:51:02;14.20;99.90
47576;DHT22;33304;52.456;13.328;2022-09-09T05:53:30;14.30;99.90
47576;DHT22;33304;52.456;13.328;2022-09-09T05:56:01;14.40;99.90
47576;DHT22;33304;52.456;13.328;2022-09-09T05:58:31;14.50;99.90
47576;DHT22;33304;52.456;13.328;2022-09-09T06:01:04;14.70;99.90
47576;DHT22;33304;52.456;13.328;2022-09-09T06:03:33;14.70;99.90
47576;DHT22;33304;52.456;13.328;2022-09-09T06:06:02;14.70;99.90
47576;DHT22;33304;52.456;13.328;2022-09-09T06:08:32;14.70;99.90
47576;DHT22;33304;52.456;13.328;2022-09-09T06:11:03;14.80;99.90
47576;DHT22;33304;52.456;13.328;2022-09-09T06:13:31;14.90;99.90
47576;DHT22;33304;52.456;13.328;2022-09-09T06:15:59;14.90;99.90
47576;DHT22;33304;52.456;13.328;2022-09-09T06:18:28;14.90;99.90
47576;DHT22;33304;52.456;13.328;2022-09-09T06:20:57;14.90;99.90
47576;DHT22;33304;52.456;13.328;2022-09-09T06:23:26;15.00;99.90
47576;DHT22;33304;52.456;13.328;2022-09-09T06:26:01;15.00;99.90
47576;DHT22;33304;52.456;13.328;2022-09-09T06:28:31;15.10;99.90
47576;DHT22;33304;52.456;13.328;2022-09-09T06:30:59;15.20;99.90
47576;DHT22;33304;52.456;13.328;2022-09-09T06:33:32;15.20;97.80
47576;DHT22;33304;52.456;13.328;2022-09-09T06:36:01;15.20;97.30
47576;DHT22;33304;52.456;13.328;2022-09-09T06:38:29;15.20;97.90
47576;DHT22;33304;52.456;13.328;2022-09-09T06:40:58;15.20;97.60
47576;DHT22;33304;52.456;13.328;2022-09-09T06:43:25;15.20;93.80
47576;DHT22;33304;52.456;13.328;2022-09-09T06:45:55;15.30;95.10
47576;DHT22;33304;52.456;13.328;2022-09-09T06:48:23;15.40;94.30
47576;DHT22;33304;52.456;13.328;2022-09-09T06:51:00;15.40;90.90
47576;DHT22;33304;52.456;13.328;2022-09-09T06:53:28;15.40;90.60
47576;DHT22;33304;52.456;13.328;2022-09-09T06:55:55;15.70;88.50
47576;DHT22;33304;52.456;13.328;2022-09-09T06:58:22;15.80;83.90
47576;DHT22;33304;52.456;13.328;2022-09-09T07:00:50;16.00;81.70
47576;DHT22;33304;52.456;13.328;2022-09-09T07:03:18;16.00;74.80
47576;DHT22;33304;52.456;13.328;2022-09-09T07:05:55;16.10;72.90
47576;DHT22;33304;52.456;13.328;2022-09-09T07:08:23;16.20;68.90
47576;DHT22;33304;52.456;13.328;2022-09-09T07:10:51;16.30;67.00
47576;DHT22;33304;52.456;13.328;2022-09-09T07:13:23;16.40;63.70
47576;DHT22;33304;52.456;13.328;2022-09-09T07:15:51;16.50;66.40
47576;DHT22;33304;52.456;13.328;2022-09-09T07:18:19;16.90;62.40
47576;DHT22;33304;52.456;13.328;2022-09-09T07:20:54;17.00;60.80
47576;DHT22;33304;52.456;13.328;2022-09-09T07:23:23;17.20;57.50
47576;DHT22;33304;52.456;13.328;2022-09-09T07:25:50;17.30;55.30
47576;DHT22;33304;52.456;13.328;2022-09-09T07:28:19;17.20;52.70
47576;DHT22;33304;52.456;13.328;2022-09-09T07:30:53;17.40;52.80
47576;DHT22;33304;52.456;13.328;2022-09-09T07:33:20;17.60;50.80
47576;DHT22;33304;52.456;13.328;2022-09-09T07:35:48;17.90;50.40
47576;DHT22;33304;52.456;13.328;2022-09-09T07:38:17;18.00;47.60
47576;DHT22;33304;52.456;13.328;2022-09-09T07:40:44;18.10;48.60
47576;DHT22;33304;52.456;13.328;2022-09-09T07:43:12;18.20;49.10
47576;DHT22;33304;52.456;13.328;2022-09-09T07:45:39;18.40;47.30
47576;DHT22;33304;52.456;13.328;2022-09-09T07:48:08;18.50;47.00
47576;DHT22;33304;52.456;13.328;2022-09-09T07:50:36;18.50;45.70
47576;DHT22;33304;52.456;13.328;2022-09-09T07:53:04;18.70;45.20
47576;DHT22;33304;52.456;13.328;2022-09-09T07:55:33;19.00;44.40
47576;DHT22;33304;52.456;13.328;2022-09-09T07:58:00;18.80;41.80
47576;DHT22;33304;52.456;13.328;2022-09-09T08:00:29;18.80;42.70
47576;DHT22;33304;52.456;13.328;2022-09-09T08:02:57;18.90;42.10
47576;DHT22;33304;52.456;13.328;2022-09-09T08:05:28;19.00;42.00
47576;DHT22;33304;52.456;13.328;2022-09-09T08:07:55;19.10;40.80
47576;DHT22;33304;52.456;13.328;2022-09-09T08:10:22;18.90;39.70
47576;DHT22;33304;52.456;13.328;2022-09-09T08:12:52;18.70;41.90
47576;DHT22;33304;52.456;13.328;2022-09-09T08:15:20;18.80;43.20
47576;DHT22;33304;52.456;13.328;2022-09-09T08:17:47;18.60;40.50
47576;DHT22;33304;52.456;13.328;2022-09-09T08:20:15;18.50;43.20
47576;DHT22;33304;52.456;13.328;2022-09-09T08:22:42;18.70;42.90
47576;DHT22;33304;52.456;13.328;2022-09-09T08:25:10;18.70;41.80
47576;DHT22;33304;52.456;13.328;2022-09-09T08:27:38;18.60;42.00
47576;DHT22;33304;52.456;13.328;2022-09-09T08:30:09;18.60;41.40
47576;DHT22;33304;52.456;13.328;2022-09-09T08:32:36;18.70;41.30
47576;DHT22;33304;52.456;13.328;2022-09-09T08:35:04;18.70;40.90
47576;DHT22;33304;52.456;13.328;2022-09-09T08:37:32;18.90;39.70
47576;DHT22;33304;52.456;13.328;2022-09-09T08:39:59;18.90;40.10
47576;DHT22;33304;52.456;13.328;2022-09-09T08:42:38;19.00;41.20
47576;DHT22;33304;52.456;13.328;2022-09-09T08:45:17;18.80;39.60
47576;DHT22;33304;52.456;13.328;2022-09-09T08:47:56;18.80;40.80
47576;DHT22;33304;52.456;13.328;2022-09-09T08:50:26;19.10;41.50
47576;DHT22;33304;52.456;13.328;2022-09-09T08:53:04;19.20;41.50
47576;DHT22;33304;52.456;13.328;2022-09-09T08:55:38;19.30;40.10
47576;DHT22;33304;52.456;13.328;2022-09-09T08:58:14;19.40;39.10
47576;DHT22;33304;52.456;13.328;2022-09-09T09:00:57;19.40;39.80
47576;DHT22;33304;52.456;13.328;2022-09-09T09:03:36;19.40;38.70
47576;DHT22;33304;52.456;13.328;2022-09-09T09:06:13;19.40;36.90
47576;DHT22;33304;52.456;13.328;2022-09-09T09:08:53;19.40;36.90
47576;DHT22;33304;52.456;13.328;2022-09-09T09:11:23;19.60;36.60
47576;DHT22;33304;52.456;13.328;2022-09-09T09:13:53;19.80;35.50
47576;DHT22;33304;52.456;13.328;2022-09-09T09:16:29;19.90;34.50
47576;DHT22;33304;52.456;13.328;2022-09-09T09:18:59;20.10;34.50
47576;DHT22;33304;52.456;13.328;2022-09-09T09:21:36;20.10;33.90
47576;DHT22;33304;52.456;13.328;2022-09-09T09:24:13;20.40;33.00
47576;DHT22;33304;52.456;13.328;2022-09-09T09:26:43;20.50;32.00
47576;DHT22;33304;52.456;13.328;2022-09-09T09:29:13;20.70;30.80
47576;DHT22;33304;52.456;13.328;2022-09-09T09:31:45;20.70;29.50
47576;DHT22;33304;52.456;13.328;2022-09-09T09:34:14;20.60;30.40
47576;DHT22;33304;52.456;13.328;2022-09-09T09:36:43;20.70;31.60
47576;DHT22;33304;52.456;13.328;2022-09-09T09:39:23;21.00;29.70
47576;DHT22;33304;52.456;13.328;2022-09-09T09:41:52;20.90;30.90
47576;DHT22;33304;52.456;13.328;2022-09-09T09:44:26;21.10;30.10
47576;DHT22;33304;52.456;13.328;2022-09-09T09:47:07;21.10;29.20
47576;DHT22;33304;52.456;13.328;2022-09-09T09:49:35;21.20;28.20
47576;DHT22;33304;52.456;13.328;2022-09-09T09:52:03;21.00;27.60
47576;DHT22;33304;52.456;13.328;2022-09-09T09:54:34;21.00;28.50
47576;DHT22;33304;52.456;13.328;2022-09-09T09:57:09;21.10;27.50
47576;DHT22;33304;52.456;13.328;2022-09-09T09:59:37;21.50;27.60
47576;DHT22;33304;52.456;13.328;2022-09-09T10:02:17;21.60;26.60
47576;DHT22;33304;52.456;13.328;2022-09-09T10:04:49;21.50;26.10
47576;DHT22;33304;52.456;13.328;2022-09-09T10:07:27;21.50;27.00
47576;DHT22;33304;52.456;13.328;2022-09-09T10:09:56;21.50;26.20
47576;DHT22;33304;52.456;13.328;2022-09-09T10:12:37;21.40;25.20
47576;DHT22;33304;52.456;13.328;2022-09-09T10:15:15;21.50;25.80
47576;DHT22;33304;52.456;13.328;2022-09-09T10:17:55;21.90;25.30
47576;DHT22;33304;52.456;13.328;2022-09-09T10:20:34;22.10;24.30
47576;DHT22;33304;52.456;13.328;2022-09-09T10:23:14;21.70;24.60
47576;DHT22;33304;52.456;13.328;2022-09-09T10:25:57;21.60;25.40
47576;DHT22;33304;52.456;13.328;2022-09-09T10:28:43;21.60;25.50
47576;DHT22;33304;52.456;13.328;2022-09-09T10:31:19;21.50;24.90
47576;DHT22;33304;52.456;13.328;2022-09-09T10:33:54;21.30;25.40
47576;DHT22;33304;52.456;13.328;2022-09-09T10:36:25;21.30;25.10
47576;DHT22;33304;52.456;13.328;2022-09-09T10:38:58;21.60;25.60
47576;DHT22;33304;52.456;13.328;2022-09-09T10:41:42;21.60;25.00
47576;DHT22;33304;52.456;13.328;2022-09-09T10:44:27;21.50;24.90
47576;DHT22;33304;52.456;13.328;2022-09-09T10:47:07;21.60;25.50
47576;DHT22;33304;52.456;13.328;2022-09-09T10:49:59;21.60;25.70
47576;DHT22;33304;52.456;13.328;2022-09-09T10:52:36;22.00;23.40
47576;DHT22;33304;52.456;13.328;2022-09-09T10:55:10;22.20;24.30
47576;DHT22;33304;52.456;13.328;2022-09-09T10:57:42;22.40;22.30
47576;DHT22;33304;52.456;13.328;2022-09-09T11:00:17;22.40;22.70
47576;DHT22;33304;52.456;13.328;2022-09-09T11:02:48;22.60;22.60
47576;DHT22;33304;52.456;13.328;2022-09-09T11:05:20;22.50;22.60
47576;DHT22;33304;52.456;13.328;2022-09-09T11:07:51;22.70;21.30
47576;DHT22;33304;52.456;13.328;2022-09-09T11:10:24;23.00;21.40
47576;DHT22;33304;52.456;13.328;2022-09-09T11:12:56;23.30;19.90
47576;DHT22;33304;52.456;13.328;2022-09-09T11:15:31;23.50;17.70
47576;DHT22;33304;52.456;13.328;2022-09-09T11:18:01;23.50;20.60
47576;DHT22;33304;52.456;13.328;2022-09-09T11:20:33;23.30;18.40
47576;DHT22;33304;52.456;13.328;2022-09-09T11:23:04;23.40;18.60
47576;DHT22;33304;52.456;13.328;2022-09-09T11:25:34;23.60;19.10
47576;DHT22;33304;52.456;13.328;2022-09-09T11:28:15;23.30;18.40
47576;DHT22;33304;52.456;13.328;2022-09-09T11:30:59;23.30;18.80
47576;DHT22;33304;52.456;13.328;2022-09-09T11:34:06;23.80;17.70
47576;DHT22;33304;52.456;13.328;2022-09-09T11:37:07;23.80;17.10
47576;DHT22;33304;52.456;13.328;2022-09-09T11:39:48;23.90;16.00
47576;DHT22;33304;52.456;13.328;2022-09-09T11:42:19;24.50;16.20
47576;DHT22;33304;52.456;13.328;2022-09-09T11:44:47;24.50;14.10
47576;DHT22;33304;52.456;13.328;2022-09-09T11:47:23;24.20;15.00
47576;DHT22;33304;52.456;13.328;2022-09-09T11:49:55;24.50;14.80
47576;DHT22;33304;52.456;13.328;2022-09-09T11:52:34;25.10;15.10
47576;DHT22;33304;52.456;13.328;2022-09-09T11:55:09;25.10;13.50
47576;DHT22;33304;52.456;13.328;2022-09-09T11:57:38;25.20;13.90
47576;DHT22;33304;52.456;13.328;2022-09-09T12:00:07;25.10;12.90
47576;DHT22;33304;52.456;13.328;2022-09-09T12:02:49;25.00;13.60
47576;DHT22;33304;52.456;13.328;2022-09-09T12:05:16;25.60;13.20
47576;DHT22;33304;52.456;13.328;2022-09-09T12:07:51;26.10;11.00
47576;DHT22;33304;52.456;13.328;2022-09-09T12:10:23;26.10;10.30
47576;DHT22;33304;52.456;13.328;2022-09-09T12:12:52;26.40;10.70
47576;DHT22;33304;52.456;13.328;2022-09-09T12:15:23;26.10;8.60
47576;DHT22;33304;52.456;13.328;2022-09-09T12:17:52;26.00;10.90
47576;DHT22;33304;52.456;13.328;2022-09-09T12:20:22;26.10;9.30
47576;DHT22;33304;52.456;13.328;2022-09-09T12:23:13;25.50;10.20
47576;DHT22;33304;52.456;13.328;2022-09-09T12:25:57;25.30;11.50
47576;DHT22;33304;52.456;13.328;2022-09-09T12:28:32;25.50;10.80
47576;DHT22;33304;52.456;13.328;2022-09-09T12:31:05;25.40;7.60
47576;DHT22;33304;52.456;13.328;2022-09-09T12:33:36;24.90;9.20
47576;DHT22;33304;52.456;13.328;2022-09-09T12:36:04;24.70;11.10
47576;DHT22;33304;52.456;13.328;2022-09-09T12:38:36;24.70;11.20
47576;DHT22;33304;52.456;13.328;2022-09-09T12:41:04;24.70;11.20
47576;DHT22;33304;52.456;13.328;2022-09-09T12:43:32;24.50;12.40
47576;DHT22;33304;52.456;13.328;2022-09-09T12:46:01;24.50;12.50
47576;DHT22;33304;52.456;13.328;2022-09-09T12:48:33;24.40;12.40
47576;DHT22;33304;52.456;13.328;2022-09-09T12:51:04;24.50;12.50
47576;DHT22;33304;52.456;13.328;2022-09-09T12:53:35;24.30;12.30
47576;DHT22;33304;52.456;13.328;2022-09-09T12:56:05;24.20;12.30
47576;DHT22;33304;52.456;13.328;2022-09-09T12:58:35;24.20;12.30
47576;DHT22;33304;52.456;13.328;2022-09-09T13:01:04;24.00;12.10
47576;DHT22;33304;52.456;13.328;2022-09-09T13:03:33;23.90;12.10
47576;DHT22;33304;52.456;13.328;2022-09-09T13:06:11;23.80;12.70
47576;DHT22;33304;52.456;13.328;2022-09-09T13:08:40;23.70;12.40
47576;DHT22;33304;52.456;13.328;2022-09-09T13:11:11;23.30;13.50
47576;DHT22;33304;52.456;13.328;2022-09-09T13:13:42;23.10;15.10
47576;DHT22;33304;52.456;13.328;2022-09-09T13:16:20;23.20;15.20
47576;DHT22;33304;52.456;13.328;2022-09-09T13:18:47;23.10;14.90
47576;DHT22;33304;52.456;13.328;2022-09-09T13:21:15;23.00;15.00
47576;DHT22;33304;52.456;13.328;2022-09-09T13:23:48;22.90;14.90
47576;DHT22;33304;52.456;13.328;2022-09-09T13:26:22;22.90;16.30
47576;DHT22;33304;52.456;13.328;2022-09-09T13:28:50;23.20;15.70
47576;DHT22;33304;52.456;13.328;2022-09-09T13:31:24;23.60;14.30
47576;DHT22;33304;52.456;13.328;2022-09-09T13:33:54;24.00;13.60
47576;DHT22;33304;52.456;13.328;2022-09-09T13:36:29;24.90;12.90
47576;DHT22;33304;52.456;13.328;2022-09-09T13:39:00;26.70;10.60
47576;DHT22;33304;52.456;13.328;2022-09-09T13:41:31;27.70;6.20
47576;DHT22;33304;52.456;13.328;2022-09-09T13:43:59;27.10;6.10
47576;DHT22;33304;52.456;13.328;2022-09-09T13:46:32;26.50;6.70
47576;DHT22;33304;52.456;13.328;2022-09-09T13:49:01;27.00;7.60
47576;DHT22;33304;52.456;13.328;2022-09-09T13:51:34;27.40;5.40
47576;DHT22;33304;52.456;13.328;2022-09-09T13:54:05;27.20;5.60
47576;DHT22;33304;52.456;13.328;2022-09-09T13:56:33;26.50;6.40
47576;DHT22;33304;52.456;13.328;2022-09-09T13:59:01;26.50;7.60
47576;DHT22;33304;52.456;13.328;2022-09-09T14:01:29;27.40;5.40
47576;DHT22;33304;52.456;13.328;2022-09-09T14:03:57;28.30;6.40
47576;DHT22;33304;52.456;13.328;2022-09-09T14:06:25;29.10;3.40
47576;DHT22;33304;52.456;13.328;2022-09-09T14:08:52;29.20;1.70
47576;DHT22;33304;52.456;13.328;2022-09-09T14:11:22;29.70;1.00
47576;DHT22;33304;52.456;13.328;2022-09-09T14:13:49;29.80;1.50
47576;DHT22;33304;52.456;13.328;2022-09-09T14:16:17;30.00;1.00
47576;DHT22;33304;52.456;13.328;2022-09-09T14:18:44;29.40;1.00
47576;DHT22;33304;52.456;13.328;2022-09-09T14:21:12;28.90;1.00
47576;DHT22;33304;52.456;13.328;2022-09-09T14:23:39;27.80;1.00
47576;DHT22;33304;52.456;13.328;2022-09-09T14:26:06;28.10;1.60
47576;DHT22;33304;52.456;13.328;2022-09-09T14:28:36;28.80;1.10
47576;DHT22;33304;52.456;13.328;2022-09-09T14:31:04;29.00;1.00
47576;DHT22;33304;52.456;13.328;2022-09-09T14:33:31;28.10;2.00
47576;DHT22;33304;52.456;13.328;2022-09-09T14:35:59;27.50;3.60
47576;DHT22;33304;52.456;13.328;2022-09-09T14:38:29;26.80;5.30
47576;DHT22;33304;52.456;13.328;2022-09-09T14:40:57;25.90;7.00
47576;DHT22;33304;52.456;13.328;2022-09-09T14:43:24;24.70;10.90
47576;DHT22;33304;52.456;13.328;2022-09-09T14:45:54;24.20;12.30
47576;DHT22;33304;52.456;13.328;2022-09-09T14:48:21;23.90;12.10
47576;DHT22;33304;52.456;13.328;2022-09-09T14:50:48;23.90;12.10
47576;DHT22;33304;52.456;13.328;2022-09-09T14:53:16;23.70;11.90
47576;DHT22;33304;52.456;13.328;2022-09-09T14:55:43;23.70;12.30
47576;DHT22;33304;52.456;13.328;2022-09-09T14:58:12;23.80;12.00
47576;DHT22;33304;52.456;13.328;2022-09-09T15:00:40;23.60;12.90
47576;DHT22;33304;52.456;13.328;2022-09-09T15:03:09;23.30;13.00
47576;DHT22;33304;52.456;13.328;2022-09-09T15:05:36;23.20;13.70
47576;DHT22;33304;52.456;13.328;2022-09-09T15:08:03;23.30;13.40
47576;DHT22;33304;52.456;13.328;2022-09-09T15:10:31;23.60;11.90
47576;DHT22;33304;52.456;13.328;2022-09-09T15:12:59;23.50;11.80
47576;DHT22;33304;52.456;13.328;2022-09-09T15:15:26;23.40;11.70
47576;DHT22;33304;52.456;13.328;2022-09-09T15:17:53;23.40;11.70
47576;DHT22;33304;52.456;13.328;2022-09-09T15:20:22;23.50;11.80
47576;DHT22;33304;52.456;13.328;2022-09-09T15:22:49;23.50;11.80
47576;DHT22;33304;52.456;13.328;2022-09-09T15:25:18;23.60;11.90
47576;DHT22;33304;52.456;13.328;2022-09-09T15:27:46;23.50;11.10
47576;DHT22;33304;52.456;13.328;2022-09-09T15:30:13;23.50;11.80
47576;DHT22;33304;52.456;13.328;2022-09-09T15:32:40;23.10;11.50
47576;DHT22;33304;52.456;13.328;2022-09-09T15:35:07;23.10;11.50
47576;DHT22;33304;52.456;13.328;2022-09-09T15:37:36;23.30;11.70
47576;DHT22;33304;52.456;13.328;2022-09-09T15:40:03;23.20;11.80
47576;DHT22;33304;52.456;13.328;2022-09-09T15:42:31;23.00;12.20
47576;DHT22;33304;52.456;13.328;2022-09-09T15:44:58;22.90;13.00